createdAt,value
2023-03-26T00:00:37.854Z,2.20
2023-03-26T00:01:59.837Z,2.41
2023-03-26T00:03:22.499Z,2.44
2023-03-26T00:04:44.569Z,2.33
2023-03-26T00:06:10.671Z,2.32
2023-03-26T00:07:32.218Z,2.16
2023-03-26T00:08:56.287Z,2.34
2023-03-26T00:10:18.500Z,2.43
2023-03-26T00:11:40.778Z,2.29
2023-03-26T00:13:03.361Z,2.56
2023-03-26T00:15:47.309Z,2.52
2023-03-26T00:17:09.399Z,2.53
2023-03-26T00:18:31.503Z,2.25
2023-03-26T00:19:53.948Z,2.05
2023-03-26T00:21:17.226Z,1.83
2023-03-26T00:22:40.620Z,1.54
2023-03-26T00:24:05.826Z,2.04
2023-03-26T00:25:27.993Z,2.02
2023-03-26T00:26:51.355Z,1.77
2023-03-26T00:28:13.925Z,1.59
2023-03-26T00:29:36.461Z,1.36
2023-03-26T00:30:59.322Z,1.91
2023-03-26T00:32:21.484Z,1.83
2023-03-26T00:33:43.487Z,1.79
2023-03-26T00:35:05.375Z,1.29
2023-03-26T00:36:27.348Z,1.61
2023-03-26T00:37:49.366Z,1.61
2023-03-26T00:39:11.354Z,1.81
2023-03-26T00:40:33.113Z,1.89
2023-03-26T00:41:56.033Z,1.73
2023-03-26T00:43:18.643Z,1.95
2023-03-26T00:44:40.880Z,1.86
2023-03-26T00:46:03.249Z,2.42
2023-03-26T00:47:25.322Z,2.00
2023-03-26T00:48:46.667Z,1.88
2023-03-26T00:50:09.548Z,1.31
2023-03-26T00:51:31.636Z,1.58
2023-03-26T00:52:53.618Z,1.70
2023-03-26T00:54:15.561Z,1.73
2023-03-26T00:55:37.310Z,1.73
2023-03-26T00:56:59.381Z,1.57
2023-03-26T00:58:20.949Z,1.49
2023-03-26T00:59:42.443Z,1.33
2023-03-26T01:02:20.036Z,1.63
2023-03-26T01:03:53.226Z,1.70
2023-03-26T01:06:51.699Z,1.82
2023-03-26T01:09:40.208Z,1.21
2023-03-26T01:11:06.182Z,1.23
2023-03-26T01:12:29.099Z,1.52
2023-03-26T01:15:15.420Z,1.34
2023-03-26T01:16:44.542Z,1.20
2023-03-26T01:18:06.486Z,1.50
2023-03-26T01:21:18.744Z,1.23
2023-03-26T01:22:46.933Z,1.30
2023-03-26T01:24:13.693Z,1.13
2023-03-26T01:25:38.981Z,1.17
2023-03-26T01:27:13.432Z,1.09
2023-03-26T01:28:34.983Z,1.40
2023-03-26T01:30:15.485Z,0.97
2023-03-26T01:31:46.607Z,1.20
2023-03-26T01:33:14.961Z,1.12
2023-03-26T01:34:46.471Z,1.21
2023-03-26T01:36:17.419Z,1.11
2023-03-26T01:38:01.299Z,1.09
2023-03-26T01:40:49.180Z,1.32
2023-03-26T01:42:12.841Z,1.24
2023-03-26T01:45:17.627Z,1.18
2023-03-26T01:46:40.228Z,1.20
2023-03-26T01:48:04.100Z,1.36
2023-03-26T01:49:27.505Z,1.15
2023-03-26T01:50:48.656Z,1.18
2023-03-26T01:52:16.799Z,1.19
2023-03-26T01:53:41.972Z,1.78
2023-03-26T01:55:04.146Z,1.30
2023-03-26T01:56:38.405Z,1.12
2023-03-26T01:58:13.026Z,1.31
2023-03-26T02:00:02.621Z,1.21
2023-03-26T02:01:30.365Z,1.11
2023-03-26T02:03:02.033Z,1.28
2023-03-26T02:04:52.395Z,1.30
2023-03-26T02:06:24.107Z,1.22
2023-03-26T02:07:52.238Z,1.44
2023-03-26T02:10:31.103Z,1.28
2023-03-26T02:11:52.463Z,1.18
2023-03-26T02:13:14.538Z,1.35
2023-03-26T02:14:36.982Z,1.37
2023-03-26T02:16:00.622Z,1.41
2023-03-26T02:17:22.896Z,1.33
2023-03-26T02:18:46.136Z,1.03
2023-03-26T02:20:10.221Z,1.37
2023-03-26T02:21:32.345Z,1.21
2023-03-26T02:22:54.319Z,1.15
2023-03-26T02:24:16.363Z,0.97
2023-03-26T02:25:37.526Z,1.57
2023-03-26T02:26:59.498Z,1.30
2023-03-26T02:28:20.807Z,1.33
2023-03-26T02:29:43.641Z,1.20
2023-03-26T02:31:05.945Z,1.40
2023-03-26T02:32:29.276Z,1.19
2023-03-26T02:33:51.923Z,1.59
2023-03-26T02:35:14.222Z,1.46
2023-03-26T02:36:36.898Z,1.44
2023-03-26T02:37:59.950Z,1.49
2023-03-26T02:39:22.001Z,1.90
2023-03-26T02:40:45.523Z,1.35
2023-03-26T02:42:08.110Z,1.62
2023-03-26T02:43:30.635Z,1.55
2023-03-26T02:46:13.989Z,1.45
2023-03-26T02:47:35.562Z,1.78
2023-03-26T02:48:57.408Z,1.43
2023-03-26T02:50:19.331Z,1.56
2023-03-26T02:51:40.740Z,1.53
2023-03-26T02:53:02.953Z,1.43
2023-03-26T02:54:24.557Z,1.53
2023-03-26T02:55:46.330Z,1.51
2023-03-26T02:57:07.839Z,1.51
2023-03-26T02:58:29.837Z,1.37
2023-03-26T02:59:53.257Z,1.77
2023-03-26T03:01:15.255Z,1.33
2023-03-26T03:02:36.810Z,1.03
2023-03-26T03:05:39.692Z,1.49
2023-03-26T03:07:01.541Z,1.58
2023-03-26T03:08:25.197Z,1.54
2023-03-26T03:09:46.551Z,1.49
2023-03-26T03:11:11.199Z,1.22
2023-03-26T03:12:33.114Z,1.75
2023-03-26T03:13:55.186Z,1.61
2023-03-26T03:15:18.046Z,1.21
2023-03-26T03:16:40.347Z,1.52
2023-03-26T03:18:02.498Z,1.49
2023-03-26T03:19:24.379Z,1.51
2023-03-26T03:20:46.604Z,1.46
2023-03-26T03:22:10.302Z,1.55
2023-03-26T03:23:32.424Z,1.54
2023-03-26T03:24:55.122Z,1.50
2023-03-26T03:26:19.664Z,1.62
2023-03-26T03:27:41.822Z,1.45
2023-03-26T03:29:03.850Z,1.71
2023-03-26T03:30:25.473Z,1.79
2023-03-26T03:31:48.113Z,1.23
2023-03-26T03:33:10.394Z,1.66
2023-03-26T03:34:32.016Z,1.29
2023-03-26T03:35:54.717Z,2.49
2023-03-26T03:37:17.913Z,1.60
2023-03-26T03:38:44.294Z,1.54
2023-03-26T03:40:07.375Z,1.51
2023-03-26T03:42:51.225Z,1.26
2023-03-26T03:44:12.632Z,1.31
2023-03-26T03:45:34.575Z,1.56
2023-03-26T03:46:56.639Z,2.74
2023-03-26T03:48:18.932Z,1.77
2023-03-26T03:49:41.010Z,1.53
2023-03-26T03:51:03.146Z,1.81
2023-03-26T03:52:26.815Z,1.62
2023-03-26T03:53:49.323Z,1.38
2023-03-26T03:55:11.941Z,1.47
2023-03-26T03:56:33.996Z,1.67
2023-03-26T03:57:56.002Z,1.45
2023-03-26T03:59:18.862Z,1.29
2023-03-26T04:00:40.863Z,1.43
2023-03-26T04:02:02.466Z,1.56
2023-03-26T04:03:33.014Z,1.80
2023-03-26T04:04:47.794Z,1.63
2023-03-26T04:06:10.671Z,1.49
2023-03-26T04:07:32.700Z,1.58
2023-03-26T04:08:55.055Z,1.96
2023-03-26T04:10:16.725Z,1.79
2023-03-26T04:11:40.476Z,1.66
2023-03-26T04:13:04.108Z,1.50
2023-03-26T04:14:25.916Z,1.45
2023-03-26T04:15:48.738Z,1.92
2023-03-26T04:17:10.643Z,1.51
2023-03-26T04:18:32.478Z,1.53
2023-03-26T04:19:54.317Z,1.67
2023-03-26T04:21:16.184Z,1.80
2023-03-26T04:22:38.263Z,1.89
2023-03-26T04:24:00.339Z,2.07
2023-03-26T04:25:22.570Z,1.66
2023-03-26T04:26:43.958Z,2.07
2023-03-26T04:28:05.860Z,1.80
2023-03-26T04:29:27.835Z,1.92
2023-03-26T04:30:50.504Z,3.34
2023-03-26T04:33:34.148Z,4.09
2023-03-26T04:34:57.652Z,2.01
2023-03-26T04:36:20.691Z,1.69
2023-03-26T04:39:06.644Z,2.14
2023-03-26T04:40:29.340Z,1.26
2023-03-26T04:41:51.797Z,1.64
2023-03-26T04:43:15.959Z,1.73
2023-03-26T04:44:38.612Z,1.61
2023-03-26T04:46:00.623Z,1.73
2023-03-26T04:47:22.473Z,1.72
2023-03-26T04:48:44.829Z,1.68
2023-03-26T04:50:07.477Z,1.51
2023-03-26T04:51:33.309Z,1.74
2023-03-26T04:52:56.096Z,1.62
2023-03-26T04:54:18.715Z,1.54
2023-03-26T04:55:52.695Z,1.59
2023-03-26T04:58:30.329Z,2.10
2023-03-26T04:59:52.481Z,1.51
2023-03-26T05:01:14.855Z,1.21
2023-03-26T05:02:36.256Z,1.89
2023-03-26T05:03:58.228Z,1.88
2023-03-26T05:05:20.322Z,1.36
2023-03-26T05:06:41.989Z,1.48
2023-03-26T05:08:03.573Z,1.77
2023-03-26T05:09:29.605Z,1.93
2023-03-26T05:10:52.522Z,1.67
2023-03-26T05:12:14.322Z,1.78
2023-03-26T05:13:36.040Z,1.87
2023-03-26T05:14:58.002Z,1.48
2023-03-26T05:16:24.181Z,1.67
2023-03-26T05:17:45.796Z,2.18
2023-03-26T05:19:07.439Z,1.68
2023-03-26T05:20:30.556Z,1.73
2023-03-26T05:21:52.648Z,2.17
2023-03-26T05:23:14.745Z,1.76
2023-03-26T05:24:36.852Z,1.73
2023-03-26T05:25:59.389Z,1.65
2023-03-26T05:27:21.387Z,1.50
2023-03-26T05:28:43.100Z,1.42
2023-03-26T05:30:08.454Z,1.57
2023-03-26T05:31:30.071Z,1.60
2023-03-26T05:32:52.217Z,1.58
2023-03-26T05:34:14.426Z,1.28
2023-03-26T05:35:37.327Z,1.62
2023-03-26T05:36:59.892Z,1.50
2023-03-26T05:38:21.430Z,1.56
2023-03-26T05:39:45.434Z,1.58
2023-03-26T05:41:08.927Z,1.64
2023-03-26T05:42:30.851Z,1.82
2023-03-26T05:43:51.958Z,2.04
2023-03-26T05:45:14.418Z,1.91
2023-03-26T05:46:37.006Z,1.73
2023-03-26T05:49:23.454Z,1.91
2023-03-26T05:50:46.706Z,1.67
2023-03-26T05:52:08.500Z,1.74
2023-03-26T05:53:30.458Z,1.83
2023-03-26T05:54:51.963Z,1.58
2023-03-26T05:56:14.189Z,1.68
2023-03-26T05:57:36.116Z,1.49
2023-03-26T05:58:58.373Z,1.87
2023-03-26T06:00:20.350Z,2.34
2023-03-26T06:01:42.328Z,2.07
2023-03-26T06:04:17.479Z,1.86
2023-03-26T06:05:39.903Z,1.88
2023-03-26T06:07:01.803Z,1.38
2023-03-26T06:08:23.760Z,1.76
2023-03-26T06:09:45.864Z,1.89
2023-03-26T06:11:08.033Z,1.92
2023-03-26T06:12:30.574Z,1.69
2023-03-26T06:13:52.642Z,2.18
2023-03-26T06:15:14.366Z,1.89
2023-03-26T06:16:37.627Z,1.48
2023-03-26T06:17:59.687Z,2.24
2023-03-26T06:19:21.376Z,1.98
2023-03-26T06:20:42.833Z,2.21
2023-03-26T06:22:04.732Z,2.18
2023-03-26T06:23:26.876Z,2.29
2023-03-26T06:24:49.511Z,2.49
2023-03-26T06:26:12.128Z,2.39
2023-03-26T06:27:35.100Z,2.49
2023-03-26T06:28:56.924Z,2.42
2023-03-26T06:30:20.509Z,2.31
2023-03-26T06:31:42.680Z,2.43
2023-03-26T06:33:05.407Z,2.58
2023-03-26T06:35:51.650Z,2.62
2023-03-26T06:37:13.503Z,2.25
2023-03-26T06:38:36.058Z,2.78
2023-03-26T06:39:58.371Z,2.10
2023-03-26T06:41:20.461Z,2.94
2023-03-26T06:43:09.113Z,2.63
2023-03-26T06:44:08.223Z,2.91
2023-03-26T06:45:31.344Z,2.85
2023-03-26T06:48:14.180Z,2.68
2023-03-26T06:49:37.279Z,3.12
2023-03-26T06:50:59.788Z,2.46
2023-03-26T06:52:20.952Z,2.74
2023-03-26T06:53:43.762Z,2.65
2023-03-26T06:55:07.242Z,2.99
2023-03-26T06:56:29.717Z,2.88
2023-03-26T06:57:52.364Z,2.91
2023-03-26T06:59:14.937Z,2.76
2023-03-26T07:00:36.528Z,2.92
2023-03-26T07:01:58.486Z,3.13
2023-03-26T07:03:20.566Z,2.95
2023-03-26T07:04:43.957Z,3.06
2023-03-26T07:06:06.640Z,3.02
2023-03-26T07:07:28.757Z,3.17
2023-03-26T07:08:50.058Z,3.28
2023-03-26T07:10:11.676Z,3.22
2023-03-26T07:11:33.686Z,2.94
2023-03-26T07:12:55.842Z,2.73
2023-03-26T07:14:17.528Z,2.93
2023-03-26T07:15:38.949Z,2.74
2023-03-26T07:17:01.622Z,3.03
2023-03-26T07:18:23.396Z,3.21
2023-03-26T07:19:44.693Z,2.63
2023-03-26T07:21:07.770Z,2.64
2023-03-26T07:23:52.608Z,2.77
2023-03-26T07:25:16.600Z,3.03
2023-03-26T07:26:56.336Z,2.84
2023-03-26T07:28:34.118Z,2.89
2023-03-26T07:30:05.208Z,3.09
2023-03-26T07:32:02.736Z,3.38
2023-03-26T07:33:37.214Z,2.89
2023-03-26T07:35:12.281Z,2.96
2023-03-26T07:38:07.970Z,3.03
2023-03-26T07:40:07.699Z,3.08
2023-03-26T07:41:35.650Z,2.79
2023-03-26T07:44:43.225Z,2.43
2023-03-26T07:46:05.890Z,2.75
2023-03-26T07:48:51.252Z,2.98
2023-03-26T07:51:34.231Z,2.85
2023-03-26T07:52:56.318Z,2.62
2023-03-26T07:54:18.747Z,4.41
2023-03-26T07:57:17.137Z,2.69
2023-03-26T07:59:04.466Z,2.43
2023-03-26T08:00:41.317Z,2.92
2023-03-26T08:02:15.570Z,2.92
2023-03-26T08:03:53.531Z,2.76
2023-03-26T08:06:38.806Z,2.11
2023-03-26T08:08:12.455Z,2.37
2023-03-26T08:11:30.908Z,1.93
2023-03-26T08:12:59.485Z,1.98
2023-03-26T08:14:45.101Z,2.14
2023-03-26T08:16:18.783Z,2.47
2023-03-26T08:17:55.404Z,2.53
2023-03-26T08:19:38.246Z,2.10
2023-03-26T08:21:05.689Z,2.15
2023-03-26T08:22:34.956Z,2.43
2023-03-26T08:24:14.886Z,2.42
2023-03-26T11:04:34.917Z,0.79
2023-03-26T11:06:32.109Z,1.35
2023-03-26T11:08:03.818Z,1.08
2023-03-26T11:09:35.264Z,1.07
2023-03-26T12:13:44.385Z,0.50
2023-03-26T12:15:27.036Z,0.59
2023-03-26T12:17:07.550Z,1.36
2023-03-26T12:18:29.963Z,0.94
2023-03-26T12:19:52.114Z,0.61
2023-03-26T12:21:19.610Z,0.46
2023-03-26T12:22:43.467Z,0.47
2023-03-26T12:24:05.750Z,0.58
2023-03-26T12:25:31.795Z,0.39
2023-03-26T12:26:58.267Z,0.42
2023-03-26T12:28:21.257Z,0.51
2023-03-26T12:29:43.829Z,0.33
2023-03-26T12:31:06.112Z,0.59
2023-03-26T12:34:10.656Z,0.63
2023-03-26T12:35:34.288Z,0.46
2023-03-26T12:36:56.917Z,0.70
2023-03-26T12:38:31.449Z,0.72
2023-03-26T12:40:10.039Z,0.60
2023-03-26T12:44:42.405Z,0.85
2023-03-26T12:44:52.875Z,0.94
2023-03-26T12:45:41.812Z,1.07
2023-03-26T12:48:26.137Z,0.41
2023-03-26T12:49:48.392Z,0.47
2023-03-26T12:51:32.638Z,0.83
2023-03-26T12:54:33.016Z,0.50
2023-03-26T12:56:21.365Z,0.54
2023-03-26T12:58:13.234Z,0.91
2023-03-26T12:59:53.148Z,1.01
2023-03-26T13:01:28.308Z,0.58
2023-03-26T13:03:11.848Z,0.54
2023-03-26T13:06:03.381Z,0.49
2023-03-26T13:07:34.886Z,0.58
2023-03-26T13:09:09.271Z,0.71
2023-03-26T13:11:54.321Z,0.76
2023-03-26T13:13:35.339Z,0.49
2023-03-26T13:15:11.810Z,0.69
2023-03-26T13:16:47.311Z,0.56
2023-03-26T13:18:31.123Z,0.48
2023-03-26T13:20:16.852Z,0.85
2023-03-26T13:22:00.490Z,0.51
2023-03-26T13:24:52.386Z,0.53
2023-03-26T13:26:36.253Z,0.86
2023-03-26T13:30:03.462Z,0.58
2023-03-26T13:31:44.575Z,0.72
2023-03-26T13:33:22.226Z,0.51
2023-03-26T13:35:02.982Z,0.49
2023-03-26T13:37:51.275Z,0.64
2023-03-26T13:39:26.972Z,0.61
2023-03-26T13:42:37.717Z,0.74
2023-03-26T13:44:24.524Z,0.60
2023-03-26T13:46:05.132Z,0.60
2023-03-26T13:47:29.299Z,0.45
2023-03-26T13:50:28.314Z,0.43
2023-03-26T13:51:59.352Z,0.51
2023-03-26T13:53:23.958Z,0.54
2023-03-26T13:54:54.874Z,0.66
2023-03-26T13:56:19.273Z,0.52
2023-03-26T13:57:53.268Z,0.53
2023-03-26T13:59:26.317Z,0.75
2023-03-26T14:02:39.375Z,0.56
2023-03-26T14:04:20.562Z,0.64
2023-03-26T14:05:44.131Z,0.52
2023-03-26T14:07:18.737Z,0.50
2023-03-26T14:11:23.334Z,0.64
2023-03-26T14:13:06.054Z,0.53
2023-03-26T14:14:48.543Z,0.75
2023-03-26T14:17:39.259Z,0.65
2023-03-26T14:19:27.983Z,0.63
2023-03-26T14:21:07.862Z,0.63
2023-03-26T14:23:01.645Z,0.52
2023-03-26T14:24:55.795Z,0.88
2023-03-26T14:28:17.431Z,0.69
2023-03-26T14:30:13.217Z,0.68
2023-03-26T14:31:42.812Z,1.87
2023-03-26T14:33:38.677Z,0.82
2023-03-26T14:36:50.710Z,0.89
2023-03-26T14:38:37.330Z,0.87
2023-03-26T14:40:26.413Z,0.64
2023-03-26T14:43:34.282Z,0.67
2023-03-26T14:45:23.486Z,0.61
2023-03-26T14:47:17.991Z,1.08
2023-03-26T14:48:49.331Z,0.70
2023-03-26T14:50:35.632Z,0.70
2023-03-26T14:52:03.931Z,0.60
2023-03-26T14:53:34.670Z,0.67
2023-03-26T14:55:03.490Z,0.70
2023-03-26T14:56:31.752Z,0.60
2023-03-26T14:58:13.915Z,0.79
2023-03-26T15:01:19.360Z,0.59
2023-03-26T15:03:04.059Z,0.76
2023-03-26T15:04:54.654Z,0.51
2023-03-26T15:06:43.331Z,0.60
2023-03-26T15:08:33.814Z,0.55
2023-03-26T15:10:15.223Z,0.49
2023-03-26T15:11:55.724Z,0.52
2023-03-26T15:13:32.438Z,0.48
2023-03-26T15:15:07.317Z,0.51
2023-03-26T15:17:05.102Z,0.41
2023-03-26T15:20:29.278Z,0.59
2023-03-26T15:22:13.106Z,0.57
2023-03-26T15:24:03.069Z,0.65
2023-03-26T15:29:25.758Z,0.60
2023-03-26T15:31:03.820Z,0.90
2023-03-26T15:34:31.217Z,0.53
2023-03-26T15:36:11.926Z,0.58
2023-03-26T15:40:08.981Z,0.60
2023-03-26T15:41:46.164Z,0.85
2023-03-26T15:43:12.480Z,0.69
2023-03-26T15:44:54.556Z,0.77
2023-03-26T15:46:27.960Z,0.68
2023-03-26T15:49:37.688Z,0.84
2023-03-26T15:51:28.930Z,0.86
2023-03-26T15:55:00.261Z,0.90
2023-03-26T15:58:19.169Z,0.81
2023-03-26T16:02:23.847Z,1.01
2023-03-26T16:03:51.922Z,0.99
2023-03-26T16:09:18.973Z,0.81
2023-03-26T16:10:52.665Z,0.83
2023-03-26T16:14:11.632Z,0.99
2023-03-26T16:15:33.872Z,0.74
2023-03-26T16:16:57.373Z,0.84
2023-03-26T16:18:30.861Z,0.78
2023-03-26T16:20:24.007Z,1.00
2023-03-26T16:25:27.808Z,1.27
2023-03-26T16:27:03.429Z,1.80
2023-03-26T16:30:30.119Z,1.76
2023-03-26T16:32:09.194Z,1.93
2023-03-26T16:34:00.291Z,2.03
2023-03-26T16:36:54.678Z,2.12
2023-03-26T16:38:18.538Z,1.60
2023-03-26T16:41:27.349Z,2.28
2023-03-26T16:43:01.539Z,1.87
2023-03-26T16:44:35.867Z,1.93
2023-03-26T16:47:32.932Z,2.23
2023-03-26T16:49:03.988Z,2.56
2023-03-26T16:50:59.521Z,3.09
2023-03-26T16:54:27.115Z,2.87
2023-03-26T16:56:04.999Z,2.18
2023-03-26T16:59:41.584Z,2.27
2023-03-26T17:01:07.808Z,2.70
2023-03-26T17:02:35.033Z,2.33
2023-03-26T17:04:09.322Z,2.37
2023-03-26T17:05:43.282Z,2.64
2023-03-26T17:07:23.216Z,2.40
2023-03-26T17:10:17.298Z,3.16
2023-03-26T17:11:58.647Z,3.22
2023-03-26T17:15:19.278Z,2.93
2023-03-26T17:16:48.390Z,2.82
2023-03-26T17:18:36.020Z,2.12
2023-03-26T17:20:13.016Z,2.18
2023-03-26T17:21:47.642Z,1.86
2023-03-26T17:23:31.278Z,1.57
2023-03-26T17:25:00.209Z,2.17
2023-03-26T17:26:47.956Z,2.74
2023-03-26T17:28:48.257Z,2.34
2023-03-26T17:30:47.944Z,1.68
2023-03-26T17:32:13.933Z,2.44
2023-03-26T17:33:37.788Z,2.86
2023-03-26T17:35:01.643Z,1.99
2023-03-26T17:36:29.565Z,2.03
2023-03-26T17:37:53.633Z,2.04
2023-03-26T17:39:24.090Z,2.14
2023-03-26T17:40:53.381Z,2.24
2023-03-26T17:42:27.550Z,2.73
2023-03-26T17:43:52.661Z,7.82
2023-03-26T17:45:16.770Z,6.13
2023-03-26T17:46:41.479Z,5.66
2023-03-26T17:48:10.529Z,3.46
2023-03-26T17:49:39.211Z,5.19
2023-03-26T17:51:09.748Z,5.13
2023-03-26T17:54:08.985Z,5.58
2023-03-26T17:55:39.770Z,3.23
2023-03-26T17:58:50.206Z,1.79
2023-03-26T18:01:36.743Z,1.46
2023-03-26T18:03:18.164Z,1.21
2023-03-26T18:08:10.493Z,0.82
2023-03-26T18:09:44.765Z,0.89
2023-03-26T18:13:30.887Z,0.73
2023-03-26T18:15:11.098Z,1.04
2023-03-26T18:16:39.118Z,0.97
2023-03-26T18:19:23.410Z,1.38
2023-03-26T18:20:48.457Z,1.29
2023-03-26T18:24:07.308Z,2.28
2023-03-26T18:25:29.973Z,1.86
2023-03-26T18:26:57.038Z,1.49
2023-03-26T18:28:18.621Z,1.36
2023-03-26T18:29:45.394Z,1.67
2023-03-26T18:31:11.671Z,1.62
2023-03-26T18:32:34.136Z,1.48
2023-03-26T18:33:56.778Z,1.36
2023-03-26T18:35:20.509Z,1.34
2023-03-26T18:36:42.633Z,1.52
2023-03-26T18:38:04.597Z,1.15
2023-03-26T18:39:26.184Z,1.31
2023-03-26T18:40:49.430Z,1.34
2023-03-26T18:42:22.564Z,1.26
2023-03-26T18:43:43.926Z,1.61
2023-03-26T18:45:11.817Z,1.76
2023-03-26T18:46:34.690Z,1.79
2023-03-26T18:47:57.920Z,3.64
2023-03-26T18:49:20.220Z,3.32
2023-03-26T18:50:41.981Z,5.42
2023-03-26T18:52:05.437Z,6.85
2023-03-26T18:53:28.626Z,3.41
2023-03-26T18:54:51.422Z,3.91
2023-03-26T18:56:37.089Z,3.63
2023-03-26T18:57:59.464Z,18.33
2023-03-26T18:59:30.413Z,15.24
2023-03-26T19:00:54.406Z,13.08
2023-03-26T19:02:16.765Z,9.60
2023-03-26T19:03:40.405Z,7.12
2023-03-26T19:05:02.375Z,4.54
2023-03-26T19:06:24.281Z,4.69
2023-03-26T19:07:46.141Z,3.46
2023-03-26T19:09:19.672Z,3.13
2023-03-26T19:10:33.080Z,2.86
2023-03-26T19:11:55.631Z,3.22
2023-03-26T19:13:19.999Z,3.08
2023-03-26T19:15:06.177Z,3.09
2023-03-26T19:16:30.983Z,2.46
2023-03-26T19:17:54.355Z,2.68
2023-03-26T19:19:23.551Z,2.50
2023-03-26T19:21:03.763Z,2.14
2023-03-26T19:22:26.163Z,2.27
2023-03-26T19:23:47.888Z,1.48
2023-03-26T19:25:11.386Z,1.67
2023-03-26T19:26:33.739Z,2.18
2023-03-26T19:27:57.256Z,2.07
2023-03-26T19:29:21.782Z,2.29
2023-03-26T19:30:43.673Z,2.23
2023-03-26T19:33:22.672Z,2.19
2023-03-26T19:34:45.421Z,2.31
2023-03-26T19:38:04.157Z,2.48
2023-03-26T19:39:43.572Z,2.15
2023-03-26T19:41:05.594Z,2.29
2023-03-26T19:42:43.467Z,3.06
2023-03-26T19:43:56.451Z,1.98
2023-03-26T19:45:19.458Z,2.94
2023-03-26T19:46:53.283Z,4.47
2023-03-26T19:49:41.865Z,6.99
2023-03-26T19:51:05.147Z,7.89
2023-03-26T19:53:54.656Z,8.51
2023-03-26T19:56:31.446Z,6.86
2023-03-26T19:57:53.216Z,6.24
2023-03-26T20:00:56.714Z,6.05
2023-03-26T20:02:19.449Z,5.88
2023-03-26T20:03:42.791Z,5.32
2023-03-26T20:06:34.486Z,4.91
2023-03-26T20:07:52.906Z,4.52
2023-03-26T20:09:14.994Z,4.06
2023-03-26T20:10:36.469Z,4.33
2023-03-26T20:11:57.948Z,4.36
2023-03-26T20:13:20.443Z,3.91
2023-03-26T20:14:42.648Z,4.06
2023-03-26T20:16:08.012Z,4.68
2023-03-26T20:17:29.881Z,4.19
2023-03-26T20:18:52.986Z,3.91
2023-03-26T20:21:36.369Z,3.96
2023-03-26T20:22:57.814Z,4.32
2023-03-26T20:24:20.318Z,3.87
2023-03-26T20:25:48.964Z,4.48
2023-03-26T20:27:11.156Z,5.32
2023-03-26T20:28:42.171Z,4.64
2023-03-26T20:29:57.342Z,4.38
2023-03-26T20:31:21.627Z,3.69
2023-03-26T20:32:45.710Z,4.16
2023-03-26T20:34:19.161Z,4.69
2023-03-26T20:35:41.293Z,4.21
2023-03-26T20:37:02.634Z,3.46
2023-03-26T20:38:36.652Z,3.87
2023-03-26T20:39:49.420Z,4.09
2023-03-26T20:41:22.096Z,3.92
2023-03-26T20:42:44.743Z,4.04
2023-03-26T20:44:10.515Z,3.89
2023-03-26T20:45:35.749Z,3.38
2023-03-26T20:46:58.022Z,3.26
2023-03-26T20:48:19.517Z,3.44
2023-03-26T20:49:41.281Z,3.41
2023-03-26T20:51:03.566Z,2.81
2023-03-26T20:52:25.854Z,2.68
2023-03-26T20:53:47.711Z,3.13
2023-03-26T20:56:34.510Z,9.81
2023-03-26T20:57:55.890Z,15.89
2023-03-26T21:01:01.152Z,5.03
2023-03-26T21:02:23.147Z,4.10
2023-03-26T21:03:44.961Z,4.16
2023-03-26T21:05:07.980Z,3.82
2023-03-26T21:06:29.718Z,4.92
2023-03-26T21:09:09.349Z,7.66
2023-03-26T21:10:33.141Z,8.05
2023-03-26T21:15:00.525Z,7.32
2023-03-26T21:16:23.364Z,6.28
2023-03-26T21:19:27.760Z,7.86
2023-03-26T21:22:28.570Z,6.14
2023-03-26T21:24:11.922Z,6.59
2023-03-26T21:28:53.439Z,10.12
2023-03-26T21:30:16.780Z,9.04
2023-03-26T21:33:20.790Z,5.06
2023-03-26T21:34:55.569Z,4.96
2023-03-26T21:36:08.703Z,4.88
2023-03-26T21:37:30.638Z,5.06
2023-03-26T21:38:53.248Z,5.00
2023-03-26T21:40:17.128Z,4.80
2023-03-26T21:41:44.608Z,6.93
2023-03-26T21:43:08.321Z,5.38
2023-03-26T21:44:30.410Z,4.72
2023-03-26T21:45:52.243Z,5.75
2023-03-26T21:47:14.203Z,5.97
2023-03-26T21:48:36.672Z,6.00
2023-03-26T21:51:20.762Z,5.02
2023-03-26T21:52:42.550Z,7.32
2023-03-26T21:54:08.299Z,16.39
2023-03-26T21:55:30.560Z,6.68
2023-03-26T21:56:56.464Z,5.73
2023-03-26T21:58:39.980Z,4.80
2023-03-26T22:01:51.428Z,4.09
2023-03-26T22:03:28.124Z,4.37
2023-03-26T22:06:43.299Z,4.01
2023-03-26T22:08:07.393Z,3.91
2023-03-26T22:09:36.253Z,4.14
2023-03-26T22:10:56.563Z,6.02
2023-03-26T22:12:20.077Z,6.24
2023-03-26T22:13:41.189Z,4.91
2023-03-26T22:15:03.064Z,3.96
2023-03-26T22:16:25.074Z,4.05
2023-03-26T22:17:46.989Z,4.86
2023-03-26T22:19:09.112Z,4.31
2023-03-26T22:20:33.917Z,3.73
2023-03-26T22:21:56.176Z,3.48
2023-03-26T22:23:18.421Z,2.69
2023-03-26T22:24:40.218Z,3.02
2023-03-26T22:26:02.375Z,3.39
2023-03-26T22:27:23.833Z,5.09
2023-03-26T22:28:45.276Z,5.54
2023-03-26T22:30:07.538Z,8.63
2023-03-26T22:31:30.556Z,6.66
2023-03-26T22:34:14.943Z,3.68
2023-03-26T22:35:43.904Z,4.73
2023-03-26T22:37:05.172Z,4.73
2023-03-26T22:38:28.562Z,3.99
2023-03-26T22:39:50.669Z,4.03
2023-03-26T22:41:12.449Z,2.87
2023-03-26T22:42:35.304Z,4.38
2023-03-26T22:43:58.022Z,4.04
2023-03-26T22:45:20.375Z,4.09
2023-03-26T22:46:42.150Z,5.38
2023-03-26T22:48:05.015Z,5.90
2023-03-26T22:49:27.036Z,4.20
2023-03-26T22:52:13.514Z,3.96
2023-03-26T22:53:35.642Z,3.94
2023-03-26T22:56:36.718Z,4.13
2023-03-26T22:57:58.612Z,3.88
2023-03-26T22:59:20.285Z,4.40
2023-03-26T23:00:42.150Z,3.99
2023-03-26T23:02:03.602Z,4.12
2023-03-26T23:03:35.455Z,4.17
2023-03-26T23:04:49.589Z,4.12
2023-03-26T23:06:11.819Z,4.29
2023-03-26T23:07:33.556Z,3.82
2023-03-26T23:08:55.659Z,3.82
2023-03-26T23:10:17.906Z,4.08
2023-03-26T23:11:39.642Z,5.02
2023-03-26T23:13:01.478Z,4.33
2023-03-26T23:14:23.136Z,5.13
2023-03-26T23:15:46.521Z,4.99
2023-03-26T23:17:07.985Z,6.26
2023-03-26T23:18:30.025Z,4.58
2023-03-26T23:19:52.554Z,4.72
2023-03-26T23:21:19.514Z,5.53
2023-03-26T23:22:41.797Z,4.96
2023-03-26T23:24:04.487Z,4.83
2023-03-26T23:25:26.734Z,4.95
2023-03-26T23:26:51.564Z,4.02
2023-03-26T23:28:13.319Z,4.83
2023-03-26T23:29:35.318Z,5.09
2023-03-26T23:30:59.063Z,5.54
2023-03-26T23:32:24.758Z,4.68
2023-03-26T23:33:44.316Z,4.59
2023-03-26T23:35:06.962Z,4.46
2023-03-26T23:36:28.240Z,4.98
2023-03-26T23:37:50.031Z,6.38
2023-03-26T23:39:11.084Z,5.54
2023-03-26T23:40:33.610Z,5.06
2023-03-26T23:41:55.053Z,4.48
2023-03-26T23:43:17.043Z,4.06
2023-03-26T23:44:38.844Z,4.02
2023-03-26T23:46:00.929Z,4.17
2023-03-26T23:47:22.308Z,3.27
2023-03-26T23:48:44.111Z,4.48
2023-03-26T23:50:08.387Z,4.67
2023-03-26T23:51:30.408Z,4.41
2023-03-26T23:52:52.541Z,4.49
2023-03-26T23:54:14.716Z,4.13
2023-03-26T23:55:37.171Z,4.44
2023-03-26T23:57:00.158Z,4.24
2023-03-26T23:58:22.793Z,4.75
2023-03-26T23:59:44.838Z,4.37
